ADDS METAR Data INFO
IDs: Format: Raw Decoded Include TAF

Data at: 0350 UTC 18 Oct 2017

PASI 180253Z 12010KT 10SM SCT048 BKN060 08/03 A2950 RMK AO2 SLP989 T00780028 58040
PASI 180153Z 12010KT 10SM FEW029 BKN043 OVC060 07/03 A2954 RMK AO2 SLP004 T00720033
PASI 180053Z 11011KT 10SM FEW029 SCT036 BKN150 07/04 A2959 RMK AO2 SLP019 T00720039
PASI 172353Z 14008KT 7SM FEW018 SCT029 BKN150 07/04 A2962 RMK AO2 RAE12B17E50 SLP030 P0005 60017 T00720044 10083 20056 58014
PASI 172338Z 16008G15KT 7SM RA FEW021 SCT029 BKN035 07/04 A2963 RMK AO2 RAE12B17 P0005 T00720044
PASI 172320Z 08007KT 10SM -RA BKN025 BKN044 07/04 A2963 RMK AO2 RAE12B17 P0002 T00670044
PASI 172313Z 08005KT 10SM SCT031 BKN044 06/04 A2963 RMK AO2 RAE12 P0002 T00610044
PASI 172253Z 27005KT 3SM -RA FEW021 OVC025 07/04 A2964 RMK AO2 RAB2156 SLP038 P0007 T00670039
PASI 172233Z 22011G17KT 4SM -RA BKN021 OVC029 07/04 A2966 RMK AO2 RAB2156 P0003 T00720044
PASI 172153Z 12008KT 10SM FEW029 SCT047 BKN080 08/04 A2965 RMK AO2 RAB02E07 SLP042 P0000 T00780039
PASI 172053Z 12009KT 10SM FEW036 SCT046 BKN060 08/04 A2966 RMK AO2 SLP044 60005 T00780039 51004
PASI 171953Z 11011KT 10SM FEW029 BKN039 OVC050 07/04 A2966 RMK AO2 RAE53 SLP043 P0003 T00670044
PASI 171941Z 11011KT 10SM -RA FEW025 BKN034 OVC042 06/05 A2966 RMK AO2 P0003 T00610050
PASI 171917Z 09007KT 3SM RA BR BKN028 BKN037 OVC048 06/04 A2966 RMK AO2 P0003 T00560044
PASI 171853Z 09010KT 10SM -RA SCT026 BKN035 OVC060 06/04 A2966 RMK AO2 SLP043 P0002 T00610044
PASI 171807Z 11007KT 4SM -RA BR FEW015 OVC029 06/04 A2966 RMK AO2 P0002 T00560039
PASI 171753Z 14006KT 4SM -RA BR BKN030 BKN038 OVC085 06/04 A2965 RMK AO2 RAB32 SLP040 P0001 60022 T00610039 10061 20044 53006
PASI 171653Z 08006KT 10SM FEW025 BKN031 OVC060 04/04 A2963 RMK AO2 RAE19 SLP035 P0002 T00440039
PASI 171648Z 10005KT 10SM FEW021 BKN030 OVC060 04/04 A2963 RMK AO2 RAE19 P0002
PASI 171603Z 10007KT 4SM -RA BR BKN026 OVC031 04/03 A2964 RMK AO2 P0002 T00440033
PASI 171553Z 09005KT 9SM -RA SCT026 BKN035 OVC047 04/03 A2963 RMK AO2 SLP034 P0005 T00440033
PASI 171519Z 07009KT 4SM RA BR SCT023 OVC030 04/03 A2963 RMK AO2 P0003 T00440033
PASI 171453Z 02007KT 5SM RA BR OVC023 04/04 A2963 RMK AO2 SLP033 P0007 60014 T00440039 53003
PASI 171424Z 13006KT 8SM -RA BKN024 BKN031 OVC040 05/04 A2963 RMK AO2 P0002 T00500039
PASI 171353Z 08006KT 10SM -RA BKN040 04/03 A2962 RMK AO2 RAB43 SLP030 P0000 T00440033
PASI 171253Z 09008KT 10SM BKN032 BKN040 04/03 A2962 RMK AO2 RAE49 SLP029 P0007 T00440033
PASI 171234Z 09008KT 9SM -RA BKN032 OVC046 04/03 A2962 RMK AO2 P0007 T00440033
PASI 171153Z 08004KT 6SM -RA BR OVC025 04/04 A2962 RMK AO2 RAB02 SLP031 P0009 60015 70038 T00440039 10056 20033 55000
PASI 171133Z 00000KT 4SM RA BR OVC025 05/03 A2963 RMK AO2 RAB02 P0004 T00500033
PASI 171053Z 07005KT 10SM BKN035 BKN048 OVC080 04/04 A2962 RMK AO2 RAE08 SLP030 P0000 T00440039
PASI 171004Z 11004KT 10SM -RA FEW023 BKN030 OVC039 05/04 A2962 RMK AO2 P0000 T00500044
PASI 170953Z 07004KT 6SM -RA BR BKN027 OVC037 05/04 A2962 RMK AO2 RAB18 SLP029 P0004 T00500039
PASI 170949Z 05004KT 5SM -RA BR FEW023 OVC027 05/04 A2962 RMK AO2 RAB18 P0004
PASI 170853Z 10007KT 10SM BKN045 OVC055 04/04 A2960 RMK AO2 RAE34 SLP023 P0001 60002 T00440039 400830033 51006
PASI 170753Z 32003KT 9SM -RA FEW030 BKN035 OVC050 04/04 A2960 RMK AO2 RAB48 SLP023 P0001 T00440039
PASI 170653Z 07003KT 10SM BKN043 04/03 A2959 RMK AO2 SLP020 T00390033
PASI 170553Z 11004KT 10SM FEW020 SCT060 04/03 A2958 RMK AO2 SLP017 60014 T00440033 10072 20044 50003
PASI 170453Z 11008KT 10SM FEW019 BKN075 OVC090 06/04 A2959 RMK AO2 RAB13E45 SLP018 P0001 T00560044
PASI 170353Z 09006KT 10SM FEW020 SCT028 BKN043 06/04 A2958 RMK AO2 RAE25 SLP015 P0001 T00560044
PASI 170300Z 12008KT 6SM -RA BR SCT020 BKN028 OVC043 06/04 A2957 RMK AO2 P0001 T00610044
PASI 170253Z 15006KT 5SM RA BR SCT020 BKN034 OVC043 06/05 A2957 RMK AO2 RAB08 SLP012 P0005 60012 T00610050 53003
PASI 170153Z 10006KT 10SM SCT020 BKN040 BKN080 06/05 A2956 RMK AO2 RAB0055E17 SLP009 P0001 T00610050
PASI 170053Z 10007KT 9SM FEW020 BKN032 OVC047 07/06 A2956 RMK AO2 RAE50 SLP009 P0006 T00720056
PASI 170049Z VRB04KT 6SM -RA BR FEW018 BKN033 OVC042 07/06 A2956 RMK AO2 P0006
PASI 170000Z 10004KT 8SM -RA SCT020 BKN025 OVC045 07/06 A2955 RMK AO2 P0000 T00720056
PASI 162353Z 00000KT 7SM -RA SCT020 OVC045 07/06 A2955 RMK AO2 RAE18B44 SLP006 P0001 60005 T00720056 10083 20067 53000
PASI 162253Z 07003KT 10SM -RA FEW018 BKN046 OVC055 07/05 A2955 RMK AO2 RAE2158B19 SLP005 P0001 T00720050
PASI 162251Z 08003KT 10SM -RA SCT018 BKN044 OVC055 07/05 A2955 RMK AO2 RAE2158B19 P0001
PASI 162226Z VRB03KT 7SM -RA SCT019 BKN024 BKN031 08/05 A2955 RMK AO2 RAE2158B19 P0000 T00780050
PASI 162153Z 12009KT 10SM -RA FEW025 SCT034 BKN055 08/05 A2955 RMK AO2 RAB37 SLP006 P0001 T00780050
PASI 162053Z 11009KT 10SM FEW023 FEW045 07/05 A2954 RMK AO2 RAB04E44 SLP003 P0002 60002 T00720050 53002
PASI 161953Z 12010KT 10SM FEW049 SCT060 07/04 A2953 RMK AO2 SLP001 T00720044
PASI 161853Z 11009KT 10SM BKN034 BKN050 07/06 A2954 RMK AO2 RAE14 SLP002 P0000 T00720056
PASI 161753Z 08004KT 5SM -RA BR SCT030 OVC035 07/05 A2954 RMK AO2 SLP002 P0003 60004 T00670050 10078 20061 55001
PASI 161718Z 08003KT 10SM -RA BKN028 OVC038 07/06 A2953 RMK AO2 P0000 T00670056
PASI 161653Z 09006KT 10SM -RA BKN032 OVC044 07/05 A2953 RMK AO2 RAB18 SLP000 P0001 T00670050
PASI 161602Z 09006KT 10SM SCT029 BKN080 06/04 A2954 RMK AO2 T00610044
PASI 161553Z 10007KT 10SM BKN029 BKN033 BKN050 06/04 A2954 RMK AO2 SLP002 T00610044
PASI 161551Z 10006KT 10SM BKN029 BKN033 06/04 A2954 RMK AO2